sensor_id;sensor_type;location;lat;lon;timestamp;temperature;humidity
23681;DHT22;62915;50.832;4.462;2024-01-11T00:00:45;-1.40;99.90
23681;DHT22;62915;50.832;4.462;2024-01-11T00:03:11;-1.50;99.90
23681;DHT22;62915;50.832;4.462;2024-01-11T00:05:37;-1.40;99.90
23681;DHT22;62915;50.832;4.462;2024-01-11T00:08:04;-1.40;99.90
23681;DHT22;62915;50.832;4.462;2024-01-11T00:10:30;-1.40;99.90
23681;DHT22;62915;50.832;4.462;2024-01-11T00:12:56;-1.30;99.90
23681;DHT22;62915;50.832;4.462;2024-01-11T00:15:22;-1.30;99.90
23681;DHT22;62915;50.832;4.462;2024-01-11T00:17:48;-1.30;99.90
23681;DHT22;62915;50.832;4.462;2024-01-11T00:20:14;-1.30;99.90
23681;DHT22;62915;50.832;4.462;2024-01-11T00:22:40;-1.40;99.90
23681;DHT22;62915;50.832;4.462;2024-01-11T00:25:06;-1.40;99.90
23681;DHT22;62915;50.832;4.462;2024-01-11T00:27:32;-1.30;99.90
23681;DHT22;62915;50.832;4.462;2024-01-11T00:29:59;-1.30;99.90
23681;DHT22;62915;50.832;4.462;2024-01-11T00:32:25;-1.50;99.90
23681;DHT22;62915;50.832;4.462;2024-01-11T00:34:51;-1.40;99.90
23681;DHT22;62915;50.832;4.462;2024-01-11T00:37:18;-1.40;99.90
23681;DHT22;62915;50.832;4.462;2024-01-11T00:39:44;-1.40;99.90
23681;DHT22;62915;50.832;4.462;2024-01-11T00:42:10;-1.30;99.90
23681;DHT22;62915;50.832;4.462;2024-01-11T00:44:36;-1.50;99.90
23681;DHT22;62915;50.832;4.462;2024-01-11T00:47:02;-1.40;99.90
23681;DHT22;62915;50.832;4.462;2024-01-11T00:49:27;-1.40;99.90
23681;DHT22;62915;50.832;4.462;2024-01-11T00:51:54;-1.40;99.90
23681;DHT22;62915;50.832;4.462;2024-01-11T00:54:20;-1.30;99.90
23681;DHT22;62915;50.832;4.462;2024-01-11T00:56:48;-1.50;99.90
23681;DHT22;62915;50.832;4.462;2024-01-11T00:59:14;-1.50;99.90
23681;DHT22;62915;50.832;4.462;2024-01-11T01:01:47;-1.40;99.90
23681;DHT22;62915;50.832;4.462;2024-01-11T01:04:13;-1.50;99.90
23681;DHT22;62915;50.832;4.462;2024-01-11T01:06:39;-1.50;99.90
23681;DHT22;62915;50.832;4.462;2024-01-11T01:09:05;-1.60;99.90
23681;DHT22;62915;50.832;4.462;2024-01-11T01:11:30;-1.60;99.90
23681;DHT22;62915;50.832;4.462;2024-01-11T01:13:56;-1.50;99.90
23681;DHT22;62915;50.832;4.462;2024-01-11T01:16:22;-1.50;99.90
23681;DHT22;62915;50.832;4.462;2024-01-11T01:18:47;-1.60;99.90
23681;DHT22;62915;50.832;4.462;2024-01-11T01:21:13;-1.60;99.90
23681;DHT22;62915;50.832;4.462;2024-01-11T01:23:39;-1.60;99.90
23681;DHT22;62915;50.832;4.462;2024-01-11T01:26:06;-1.60;99.90
23681;DHT22;62915;50.832;4.462;2024-01-11T01:28:32;-1.70;99.90
23681;DHT22;62915;50.832;4.462;2024-01-11T01:30:58;-1.60;99.90
23681;DHT22;62915;50.832;4.462;2024-01-11T01:33:24;-1.60;99.90
23681;DHT22;62915;50.832;4.462;2024-01-11T01:35:51;-1.60;99.90
23681;DHT22;62915;50.832;4.462;2024-01-11T01:38:17;-1.60;99.90
23681;DHT22;62915;50.832;4.462;2024-01-11T01:40:43;-1.50;99.90
23681;DHT22;62915;50.832;4.462;2024-01-11T01:43:09;-1.50;99.90
23681;DHT22;62915;50.832;4.462;2024-01-11T01:45:35;-1.60;99.90
23681;DHT22;62915;50.832;4.462;2024-01-11T01:48:02;-1.60;99.90
23681;DHT22;62915;50.832;4.462;2024-01-11T01:50:30;-1.50;99.90
23681;DHT22;62915;50.832;4.462;2024-01-11T01:52:56;-1.60;99.90
23681;DHT22;62915;50.832;4.462;2024-01-11T01:55:23;-1.50;99.90
23681;DHT22;62915;50.832;4.462;2024-01-11T01:57:51;-1.50;99.90
23681;DHT22;62915;50.832;4.462;2024-01-11T02:00:18;-1.50;99.90
23681;DHT22;62915;50.832;4.462;2024-01-11T02:02:49;-1.50;99.90
23681;DHT22;62915;50.832;4.462;2024-01-11T02:05:19;-1.60;99.90
23681;DHT22;62915;50.832;4.462;2024-01-11T02:07:45;-1.60;99.90
23681;DHT22;62915;50.832;4.462;2024-01-11T02:10:12;-1.60;99.90
23681;DHT22;62915;50.832;4.462;2024-01-11T02:12:39;-1.70;99.90
23681;DHT22;62915;50.832;4.462;2024-01-11T02:15:09;-1.60;99.90
23681;DHT22;62915;50.832;4.462;2024-01-11T02:17:40;-1.70;99.90
23681;DHT22;62915;50.832;4.462;2024-01-11T02:20:06;-1.60;99.90
23681;DHT22;62915;50.832;4.462;2024-01-11T02:22:39;-1.70;99.90
23681;DHT22;62915;50.832;4.462;2024-01-11T02:25:06;-1.70;99.90
23681;DHT22;62915;50.832;4.462;2024-01-11T02:27:47;-1.70;99.90
23681;DHT22;62915;50.832;4.462;2024-01-11T02:30:14;-1.70;99.90
23681;DHT22;62915;50.832;4.462;2024-01-11T02:32:45;-1.90;99.90
23681;DHT22;62915;50.832;4.462;2024-01-11T02:35:16;-1.80;99.90
23681;DHT22;62915;50.832;4.462;2024-01-11T02:37:48;-1.80;99.90
23681;DHT22;62915;50.832;4.462;2024-01-11T02:40:18;-1.80;99.90
23681;DHT22;62915;50.832;4.462;2024-01-11T02:42:49;-1.80;99.90
23681;DHT22;62915;50.832;4.462;2024-01-11T02:45:18;-1.80;99.90
23681;DHT22;62915;50.832;4.462;2024-01-11T02:47:47;-1.70;99.90
23681;DHT22;62915;50.832;4.462;2024-01-11T02:50:13;-1.70;99.90
23681;DHT22;62915;50.832;4.462;2024-01-11T02:52:39;-1.80;99.90
23681;DHT22;62915;50.832;4.462;2024-01-11T02:55:05;-1.70;99.90
23681;DHT22;62915;50.832;4.462;2024-01-11T02:57:34;-1.70;99.90
23681;DHT22;62915;50.832;4.462;2024-01-11T03:00:07;-1.70;99.90
23681;DHT22;62915;50.832;4.462;2024-01-11T03:02:38;-1.80;99.90
23681;DHT22;62915;50.832;4.462;2024-01-11T03:05:05;-1.80;99.90
23681;DHT22;62915;50.832;4.462;2024-01-11T03:07:31;-1.80;99.90
23681;DHT22;62915;50.832;4.462;2024-01-11T03:09:57;-1.70;99.90
23681;DHT22;62915;50.832;4.462;2024-01-11T03:12:23;-1.90;99.90
23681;DHT22;62915;50.832;4.462;2024-01-11T03:14:52;-1.80;99.90
23681;DHT22;62915;50.832;4.462;2024-01-11T03:17:18;-1.70;99.90
23681;DHT22;62915;50.832;4.462;2024-01-11T03:19:44;-1.80;99.90
23681;DHT22;62915;50.832;4.462;2024-01-11T03:22:11;-1.80;99.90
23681;DHT22;62915;50.832;4.462;2024-01-11T03:24:37;-1.80;99.90
23681;DHT22;62915;50.832;4.462;2024-01-11T03:27:04;-1.80;99.90
23681;DHT22;62915;50.832;4.462;2024-01-11T03:29:31;-1.80;99.90
23681;DHT22;62915;50.832;4.462;2024-01-11T03:31:57;-1.90;99.90
23681;DHT22;62915;50.832;4.462;2024-01-11T03:34:22;-1.80;99.90
23681;DHT22;62915;50.832;4.462;2024-01-11T03:36:48;-1.90;99.90
23681;DHT22;62915;50.832;4.462;2024-01-11T03:39:15;-1.90;99.90
23681;DHT22;62915;50.832;4.462;2024-01-11T03:41:47;-2.00;99.90
23681;DHT22;62915;50.832;4.462;2024-01-11T03:44:12;-1.90;99.90
23681;DHT22;62915;50.832;4.462;2024-01-11T03:46:38;-2.00;99.90
23681;DHT22;62915;50.832;4.462;2024-01-11T03:49:04;-2.00;99.90
23681;DHT22;62915;50.832;4.462;2024-01-11T03:51:30;-2.00;99.90
23681;DHT22;62915;50.832;4.462;2024-01-11T03:53:55;-2.10;99.90
23681;DHT22;62915;50.832;4.462;2024-01-11T03:56:21;-2.10;99.90
23681;DHT22;62915;50.832;4.462;2024-01-11T03:58:47;-2.10;99.90
23681;DHT22;62915;50.832;4.462;2024-01-11T04:01:13;-2.00;99.90
23681;DHT22;62915;50.832;4.462;2024-01-11T04:03:39;-2.00;99.90
23681;DHT22;62915;50.832;4.462;2024-01-11T04:06:07;-2.00;99.90
23681;DHT22;62915;50.832;4.462;2024-01-11T04:08:32;-1.90;99.90
23681;DHT22;62915;50.832;4.462;2024-01-11T04:11:02;-1.90;99.90
23681;DHT22;62915;50.832;4.462;2024-01-11T04:13:28;-2.00;99.90
23681;DHT22;62915;50.832;4.462;2024-01-11T04:15:54;-2.00;99.90
23681;DHT22;62915;50.832;4.462;2024-01-11T04:18:19;-2.10;99.90
23681;DHT22;62915;50.832;4.462;2024-01-11T04:20:45;-2.00;99.90
23681;DHT22;62915;50.832;4.462;2024-01-11T04:23:11;-2.00;99.90
23681;DHT22;62915;50.832;4.462;2024-01-11T04:25:37;-2.00;99.90
23681;DHT22;62915;50.832;4.462;2024-01-11T04:28:02;-2.10;99.90
23681;DHT22;62915;50.832;4.462;2024-01-11T04:30:28;-2.10;99.90
23681;DHT22;62915;50.832;4.462;2024-01-11T04:32:55;-2.20;99.90
23681;DHT22;62915;50.832;4.462;2024-01-11T04:35:21;-2.10;99.90
23681;DHT22;62915;50.832;4.462;2024-01-11T04:37:47;-2.10;99.90
23681;DHT22;62915;50.832;4.462;2024-01-11T04:40:13;-2.10;99.90
23681;DHT22;62915;50.832;4.462;2024-01-11T04:42:38;-2.10;99.90
23681;DHT22;62915;50.832;4.462;2024-01-11T04:45:04;-2.20;99.90
23681;DHT22;62915;50.832;4.462;2024-01-11T04:47:30;-2.20;99.90
23681;DHT22;62915;50.832;4.462;2024-01-11T04:49:57;-2.30;99.90
23681;DHT22;62915;50.832;4.462;2024-01-11T04:52:23;-2.30;99.90
23681;DHT22;62915;50.832;4.462;2024-01-11T04:54:49;-2.20;99.90
23681;DHT22;62915;50.832;4.462;2024-01-11T04:57:15;-2.30;99.90
23681;DHT22;62915;50.832;4.462;2024-01-11T04:59:42;-2.30;99.90
23681;DHT22;62915;50.832;4.462;2024-01-11T05:02:08;-2.20;99.90
23681;DHT22;62915;50.832;4.462;2024-01-11T05:04:34;-2.30;99.90
23681;DHT22;62915;50.832;4.462;2024-01-11T05:07:00;-2.30;99.90
23681;DHT22;62915;50.832;4.462;2024-01-11T05:09:27;-2.30;99.90
23681;DHT22;62915;50.832;4.462;2024-01-11T05:11:54;-2.40;99.90
23681;DHT22;62915;50.832;4.462;2024-01-11T05:14:20;-2.40;99.90
23681;DHT22;62915;50.832;4.462;2024-01-11T05:16:46;-2.30;99.90
23681;DHT22;62915;50.832;4.462;2024-01-11T05:19:12;-2.30;99.90
23681;DHT22;62915;50.832;4.462;2024-01-11T05:21:38;-2.20;99.90
23681;DHT22;62915;50.832;4.462;2024-01-11T05:24:04;-2.20;99.90
23681;DHT22;62915;50.832;4.462;2024-01-11T05:26:29;-2.30;99.90
23681;DHT22;62915;50.832;4.462;2024-01-11T05:28:56;-2.20;99.90
23681;DHT22;62915;50.832;4.462;2024-01-11T05:31:22;-2.20;99.90
23681;DHT22;62915;50.832;4.462;2024-01-11T05:33:48;-2.20;99.90
23681;DHT22;62915;50.832;4.462;2024-01-11T05:36:13;-2.20;99.90
23681;DHT22;62915;50.832;4.462;2024-01-11T05:38:39;-2.20;99.90
23681;DHT22;62915;50.832;4.462;2024-01-11T05:41:06;-2.20;99.90
23681;DHT22;62915;50.832;4.462;2024-01-11T05:43:33;-2.20;99.90
23681;DHT22;62915;50.832;4.462;2024-01-11T05:45:59;-2.20;99.90
23681;DHT22;62915;50.832;4.462;2024-01-11T05:48:29;-2.20;99.90
23681;DHT22;62915;50.832;4.462;2024-01-11T05:50:57;-2.20;99.90
23681;DHT22;62915;50.832;4.462;2024-01-11T05:53:24;-2.20;99.90
23681;DHT22;62915;50.832;4.462;2024-01-11T05:55:51;-2.30;99.90
23681;DHT22;62915;50.832;4.462;2024-01-11T05:58:19;-2.30;99.90
23681;DHT22;62915;50.832;4.462;2024-01-11T06:00:45;-2.30;99.90
23681;DHT22;62915;50.832;4.462;2024-01-11T06:03:14;-2.30;99.90
23681;DHT22;62915;50.832;4.462;2024-01-11T06:05:40;-2.30;99.90
23681;DHT22;62915;50.832;4.462;2024-01-11T06:08:06;-2.20;99.90
23681;DHT22;62915;50.832;4.462;2024-01-11T06:10:32;-2.10;99.90
23681;DHT22;62915;50.832;4.462;2024-01-11T06:12:58;-2.10;99.90
23681;DHT22;62915;50.832;4.462;2024-01-11T06:15:24;-2.10;99.90
23681;DHT22;62915;50.832;4.462;2024-01-11T06:17:50;-2.10;99.90
23681;DHT22;62915;50.832;4.462;2024-01-11T06:20:15;-2.10;99.90
23681;DHT22;62915;50.832;4.462;2024-01-11T06:22:41;-2.20;99.90
23681;DHT22;62915;50.832;4.462;2024-01-11T06:25:07;-2.30;99.90
23681;DHT22;62915;50.832;4.462;2024-01-11T06:27:33;-2.20;99.90
23681;DHT22;62915;50.832;4.462;2024-01-11T06:29:58;-2.20;99.90
23681;DHT22;62915;50.832;4.462;2024-01-11T06:32:24;-2.30;99.90
23681;DHT22;62915;50.832;4.462;2024-01-11T06:34:50;-2.20;99.90
23681;DHT22;62915;50.832;4.462;2024-01-11T06:37:17;-2.10;99.90
23681;DHT22;62915;50.832;4.462;2024-01-11T06:39:42;-2.10;99.90
23681;DHT22;62915;50.832;4.462;2024-01-11T06:42:08;-2.10;99.90
23681;DHT22;62915;50.832;4.462;2024-01-11T06:44:34;-2.40;99.90
23681;DHT22;62915;50.832;4.462;2024-01-11T06:47:00;-2.30;99.90
23681;DHT22;62915;50.832;4.462;2024-01-11T06:49:27;-2.20;99.90
23681;DHT22;62915;50.832;4.462;2024-01-11T06:51:53;-2.40;99.90
23681;DHT22;62915;50.832;4.462;2024-01-11T06:54:19;-2.30;99.90
23681;DHT22;62915;50.832;4.462;2024-01-11T06:56:45;-2.20;99.90
23681;DHT22;62915;50.832;4.462;2024-01-11T06:59:11;-2.30;99.90
23681;DHT22;62915;50.832;4.462;2024-01-11T07:01:37;-2.30;99.90
23681;DHT22;62915;50.832;4.462;2024-01-11T07:04:03;-2.20;99.90
23681;DHT22;62915;50.832;4.462;2024-01-11T07:06:28;-2.30;99.90
23681;DHT22;62915;50.832;4.462;2024-01-11T07:08:54;-2.20;99.90
23681;DHT22;62915;50.832;4.462;2024-01-11T07:11:20;-2.20;99.90
23681;DHT22;62915;50.832;4.462;2024-01-11T07:13:46;-2.10;99.90
23681;DHT22;62915;50.832;4.462;2024-01-11T07:16:12;-2.10;99.90
23681;DHT22;62915;50.832;4.462;2024-01-11T07:18:38;-2.10;99.90
23681;DHT22;62915;50.832;4.462;2024-01-11T07:21:04;-2.10;99.90
23681;DHT22;62915;50.832;4.462;2024-01-11T07:23:30;-2.10;99.90
23681;DHT22;62915;50.832;4.462;2024-01-11T07:25:56;-2.10;99.90
23681;DHT22;62915;50.832;4.462;2024-01-11T07:28:22;-2.30;99.90
23681;DHT22;62915;50.832;4.462;2024-01-11T07:30:52;-2.20;99.90
23681;DHT22;62915;50.832;4.462;2024-01-11T07:33:19;-2.10;99.90
23681;DHT22;62915;50.832;4.462;2024-01-11T07:35:46;-2.10;99.90
23681;DHT22;62915;50.832;4.462;2024-01-11T07:38:12;-2.20;99.90
23681;DHT22;62915;50.832;4.462;2024-01-11T07:40:38;-2.20;99.90
23681;DHT22;62915;50.832;4.462;2024-01-11T07:43:03;-2.20;99.90
23681;DHT22;62915;50.832;4.462;2024-01-11T07:45:30;-2.20;99.90
23681;DHT22;62915;50.832;4.462;2024-01-11T07:47:55;-2.20;99.90
23681;DHT22;62915;50.832;4.462;2024-01-11T07:50:22;-2.20;99.90
23681;DHT22;62915;50.832;4.462;2024-01-11T07:52:47;-2.30;99.90
23681;DHT22;62915;50.832;4.462;2024-01-11T07:55:13;-2.30;99.90
23681;DHT22;62915;50.832;4.462;2024-01-11T07:57:41;-2.30;99.90
23681;DHT22;62915;50.832;4.462;2024-01-11T08:00:07;-2.30;99.90
23681;DHT22;62915;50.832;4.462;2024-01-11T08:02:33;-2.30;99.90
23681;DHT22;62915;50.832;4.462;2024-01-11T08:04:59;-2.30;99.90
23681;DHT22;62915;50.832;4.462;2024-01-11T08:07:28;-2.30;99.90
23681;DHT22;62915;50.832;4.462;2024-01-11T08:09:55;-2.40;99.90
23681;DHT22;62915;50.832;4.462;2024-01-11T08:12:22;-2.30;99.90
23681;DHT22;62915;50.832;4.462;2024-01-11T08:14:48;-2.30;99.90
23681;DHT22;62915;50.832;4.462;2024-01-11T08:17:15;-2.20;99.90
23681;DHT22;62915;50.832;4.462;2024-01-11T08:19:41;-2.30;99.90
23681;DHT22;62915;50.832;4.462;2024-01-11T08:22:08;-2.40;99.90
23681;DHT22;62915;50.832;4.462;2024-01-11T08:24:35;-2.30;99.90
23681;DHT22;62915;50.832;4.462;2024-01-11T08:27:00;-2.40;99.90
23681;DHT22;62915;50.832;4.462;2024-01-11T08:29:26;-2.40;99.90
23681;DHT22;62915;50.832;4.462;2024-01-11T08:31:53;-2.40;99.90
23681;DHT22;62915;50.832;4.462;2024-01-11T08:34:21;-2.30;99.90
23681;DHT22;62915;50.832;4.462;2024-01-11T08:36:48;-2.30;99.90
23681;DHT22;62915;50.832;4.462;2024-01-11T08:39:14;-2.20;99.90
23681;DHT22;62915;50.832;4.462;2024-01-11T08:41:42;-2.30;99.90
23681;DHT22;62915;50.832;4.462;2024-01-11T08:44:10;-2.30;99.90
23681;DHT22;62915;50.832;4.462;2024-01-11T08:46:39;-2.40;99.90
23681;DHT22;62915;50.832;4.462;2024-01-11T08:49:08;-2.40;99.90
23681;DHT22;62915;50.832;4.462;2024-01-11T08:51:37;-2.30;99.90
23681;DHT22;62915;50.832;4.462;2024-01-11T08:54:07;-2.40;99.90
23681;DHT22;62915;50.832;4.462;2024-01-11T08:56:38;-2.30;99.90
23681;DHT22;62915;50.832;4.462;2024-01-11T08:59:09;-2.40;99.90
23681;DHT22;62915;50.832;4.462;2024-01-11T09:01:39;-2.30;99.90
23681;DHT22;62915;50.832;4.462;2024-01-11T09:04:08;-2.40;99.90
23681;DHT22;62915;50.832;4.462;2024-01-11T09:06:37;-2.50;99.90
23681;DHT22;62915;50.832;4.462;2024-01-11T09:09:06;-2.50;99.90
23681;DHT22;62915;50.832;4.462;2024-01-11T09:11:43;-2.40;99.90
23681;DHT22;62915;50.832;4.462;2024-01-11T09:14:12;-2.50;99.90
23681;DHT22;62915;50.832;4.462;2024-01-11T09:16:44;-2.40;99.90
23681;DHT22;62915;50.832;4.462;2024-01-11T09:19:16;-2.40;99.90
23681;DHT22;62915;50.832;4.462;2024-01-11T09:21:45;-2.20;99.90
23681;DHT22;62915;50.832;4.462;2024-01-11T09:24:12;-2.20;99.90
23681;DHT22;62915;50.832;4.462;2024-01-11T09:26:38;-2.20;99.90
23681;DHT22;62915;50.832;4.462;2024-01-11T09:29:04;-2.20;99.90
23681;DHT22;62915;50.832;4.462;2024-01-11T09:31:31;-2.20;99.90
23681;DHT22;62915;50.832;4.462;2024-01-11T09:33:57;-2.10;99.90
23681;DHT22;62915;50.832;4.462;2024-01-11T09:36:22;-2.00;99.90
23681;DHT22;62915;50.832;4.462;2024-01-11T09:38:49;-2.10;99.90
23681;DHT22;62915;50.832;4.462;2024-01-11T09:41:15;-2.10;99.90
23681;DHT22;62915;50.832;4.462;2024-01-11T09:43:42;-2.10;99.90
23681;DHT22;62915;50.832;4.462;2024-01-11T09:46:10;-2.00;99.90
23681;DHT22;62915;50.832;4.462;2024-01-11T09:48:39;-1.90;99.90
23681;DHT22;62915;50.832;4.462;2024-01-11T09:51:10;-1.90;99.90
23681;DHT22;62915;50.832;4.462;2024-01-11T09:53:38;-1.80;99.90
23681;DHT22;62915;50.832;4.462;2024-01-11T09:56:09;-1.70;99.90
23681;DHT22;62915;50.832;4.462;2024-01-11T09:58:36;-1.50;99.90
23681;DHT22;62915;50.832;4.462;2024-01-11T10:01:09;-1.10;99.90
23681;DHT22;62915;50.832;4.462;2024-01-11T10:03:43;-0.50;99.90
23681;DHT22;62915;50.832;4.462;2024-01-11T10:06:13;-0.10;99.90
23681;DHT22;62915;50.832;4.462;2024-01-11T10:08:45;0.40;99.90
23681;DHT22;62915;50.832;4.462;2024-01-11T10:11:12;0.50;99.90
23681;DHT22;62915;50.832;4.462;2024-01-11T10:13:39;1.10;99.90
23681;DHT22;62915;50.832;4.462;2024-01-11T10:16:10;1.40;99.90
23681;DHT22;62915;50.832;4.462;2024-01-11T10:18:39;1.90;99.90
23681;DHT22;62915;50.832;4.462;2024-01-11T10:21:05;1.60;99.90
23681;DHT22;62915;50.832;4.462;2024-01-11T10:23:38;1.80;99.90
23681;DHT22;62915;50.832;4.462;2024-01-11T10:26:07;2.50;99.90
23681;DHT22;62915;50.832;4.462;2024-01-11T10:28:35;3.10;99.90
23681;DHT22;62915;50.832;4.462;2024-01-11T10:31:05;3.70;99.90
23681;DHT22;62915;50.832;4.462;2024-01-11T10:33:33;4.10;99.90
23681;DHT22;62915;50.832;4.462;2024-01-11T10:36:00;4.60;99.90
23681;DHT22;62915;50.832;4.462;2024-01-11T10:38:26;4.50;99.90
23681;DHT22;62915;50.832;4.462;2024-01-11T10:40:56;4.80;99.90
23681;DHT22;62915;50.832;4.462;2024-01-11T10:43:25;5.10;99.90
23681;DHT22;62915;50.832;4.462;2024-01-11T10:45:51;4.60;99.90
23681;DHT22;62915;50.832;4.462;2024-01-11T10:48:22;3.60;99.90
23681;DHT22;62915;50.832;4.462;2024-01-11T10:50:55;3.30;99.90
23681;DHT22;62915;50.832;4.462;2024-01-11T10:56:09;3.10;99.90
23681;DHT22;62915;50.832;4.462;2024-01-11T10:58:40;3.40;99.90
23681;DHT22;62915;50.832;4.462;2024-01-11T11:01:11;3.00;99.90
23681;DHT22;62915;50.832;4.462;2024-01-11T11:03:39;2.90;99.90
23681;DHT22;62915;50.832;4.462;2024-01-11T11:06:06;3.10;99.90
23681;DHT22;62915;50.832;4.462;2024-01-11T11:08:36;2.80;99.90
23681;DHT22;62915;50.832;4.462;2024-01-11T11:11:03;2.40;99.90
23681;DHT22;62915;50.832;4.462;2024-01-11T11:13:32;2.20;99.90
23681;DHT22;62915;50.832;4.462;2024-01-11T11:16:00;2.30;99.90
23681;DHT22;62915;50.832;4.462;2024-01-11T11:18:27;2.20;99.90
23681;DHT22;62915;50.832;4.462;2024-01-11T11:20:53;2.40;99.90
23681;DHT22;62915;50.832;4.462;2024-01-11T11:23:19;2.30;99.90
23681;DHT22;62915;50.832;4.462;2024-01-11T11:25:46;2.30;99.90
23681;DHT22;62915;50.832;4.462;2024-01-11T11:28:14;2.40;99.90
23681;DHT22;62915;50.832;4.462;2024-01-11T11:30:44;1.90;99.90
23681;DHT22;62915;50.832;4.462;2024-01-11T11:33:23;1.70;99.90
23681;DHT22;62915;50.832;4.462;2024-01-11T11:35:54;1.70;99.90
23681;DHT22;62915;50.832;4.462;2024-01-11T11:38:26;1.80;99.90
23681;DHT22;62915;50.832;4.462;2024-01-11T11:40:57;1.90;99.90
23681;DHT22;62915;50.832;4.462;2024-01-11T11:43:26;2.20;99.90
23681;DHT22;62915;50.832;4.462;2024-01-11T11:45:52;2.30;99.90
23681;DHT22;62915;50.832;4.462;2024-01-11T11:48:47;2.50;99.90
23681;DHT22;62915;50.832;4.462;2024-01-11T11:51:18;2.60;99.90
23681;DHT22;62915;50.832;4.462;2024-01-11T11:53:48;2.60;99.90
23681;DHT22;62915;50.832;4.462;2024-01-11T11:56:16;2.40;99.90
23681;DHT22;62915;50.832;4.462;2024-01-11T11:58:43;2.40;99.90
23681;DHT22;62915;50.832;4.462;2024-01-11T12:01:09;2.70;99.90
23681;DHT22;62915;50.832;4.462;2024-01-11T12:03:37;2.40;99.90
23681;DHT22;62915;50.832;4.462;2024-01-11T12:06:04;2.60;99.90
23681;DHT22;62915;50.832;4.462;2024-01-11T12:08:34;2.40;99.90
23681;DHT22;62915;50.832;4.462;2024-01-11T12:11:01;2.70;99.90
23681;DHT22;62915;50.832;4.462;2024-01-11T12:13:27;2.40;99.90
23681;DHT22;62915;50.832;4.462;2024-01-11T12:15:53;2.30;99.90
23681;DHT22;62915;50.832;4.462;2024-01-11T12:18:19;2.50;99.90
23681;DHT22;62915;50.832;4.462;2024-01-11T12:20:45;2.50;99.90
23681;DHT22;62915;50.832;4.462;2024-01-11T12:23:11;2.50;99.90
23681;DHT22;62915;50.832;4.462;2024-01-11T12:25:40;2.50;99.90
23681;DHT22;62915;50.832;4.462;2024-01-11T12:28:07;2.80;99.90
23681;DHT22;62915;50.832;4.462;2024-01-11T12:30:33;2.40;99.90
23681;DHT22;62915;50.832;4.462;2024-01-11T12:33:01;2.30;99.90
23681;DHT22;62915;50.832;4.462;2024-01-11T12:35:27;2.60;99.90
23681;DHT22;62915;50.832;4.462;2024-01-11T12:38:06;2.70;99.90
23681;DHT22;62915;50.832;4.462;2024-01-11T12:40:35;2.80;99.90
23681;DHT22;62915;50.832;4.462;2024-01-11T12:43:05;2.50;99.90
23681;DHT22;62915;50.832;4.462;2024-01-11T12:45:34;2.20;99.90
23681;DHT22;62915;50.832;4.462;2024-01-11T12:48:00;2.10;99.90
23681;DHT22;62915;50.832;4.462;2024-01-11T12:50:27;2.10;99.90
23681;DHT22;62915;50.832;4.462;2024-01-11T12:53:12;2.00;99.90
23681;DHT22;62915;50.832;4.462;2024-01-11T12:55:44;2.10;99.90
23681;DHT22;62915;50.832;4.462;2024-01-11T12:58:10;2.00;99.90
23681;DHT22;62915;50.832;4.462;2024-01-11T13:00:37;2.10;99.90
23681;DHT22;62915;50.832;4.462;2024-01-11T13:03:04;2.10;99.90
23681;DHT22;62915;50.832;4.462;2024-01-11T13:05:32;2.00;99.90
23681;DHT22;62915;50.832;4.462;2024-01-11T13:08:10;2.10;99.90
23681;DHT22;62915;50.832;4.462;2024-01-11T13:10:37;2.20;99.90
23681;DHT22;62915;50.832;4.462;2024-01-11T13:13:06;2.30;99.90
23681;DHT22;62915;50.832;4.462;2024-01-11T13:15:33;2.30;99.90
23681;DHT22;62915;50.832;4.462;2024-01-11T13:18:00;2.30;99.90
23681;DHT22;62915;50.832;4.462;2024-01-11T13:20:30;2.20;99.90
23681;DHT22;62915;50.832;4.462;2024-01-11T13:23:12;2.30;99.90
23681;DHT22;62915;50.832;4.462;2024-01-11T13:25:43;2.40;99.90
23681;DHT22;62915;50.832;4.462;2024-01-11T13:28:09;2.40;99.90
23681;DHT22;62915;50.832;4.462;2024-01-11T13:30:37;2.40;99.90
23681;DHT22;62915;50.832;4.462;2024-01-11T13:33:05;2.50;99.90
23681;DHT22;62915;50.832;4.462;2024-01-11T13:35:34;2.50;99.90
23681;DHT22;62915;50.832;4.462;2024-01-11T13:38:01;2.60;99.90
23681;DHT22;62915;50.832;4.462;2024-01-11T13:40:29;2.60;99.90
23681;DHT22;62915;50.832;4.462;2024-01-11T13:42:59;2.50;99.90
23681;DHT22;62915;50.832;4.462;2024-01-11T13:45:27;2.60;99.90
23681;DHT22;62915;50.832;4.462;2024-01-11T13:47:54;2.60;99.90
23681;DHT22;62915;50.832;4.462;2024-01-11T13:50:20;2.60;99.90
23681;DHT22;62915;50.832;4.462;2024-01-11T13:52:46;2.50;99.90
23681;DHT22;62915;50.832;4.462;2024-01-11T13:55:12;2.40;99.90
23681;DHT22;62915;50.832;4.462;2024-01-11T13:57:39;2.30;99.90
23681;DHT22;62915;50.832;4.462;2024-01-11T14:00:05;2.40;99.90
23681;DHT22;62915;50.832;4.462;2024-01-11T14:02:31;2.40;99.90
23681;DHT22;62915;50.832;4.462;2024-01-11T14:04:58;2.30;99.90
23681;DHT22;62915;50.832;4.462;2024-01-11T14:07:24;2.20;99.90
23681;DHT22;62915;50.832;4.462;2024-01-11T14:09:50;2.20;99.90
23681;DHT22;62915;50.832;4.462;2024-01-11T14:12:16;2.00;99.90
23681;DHT22;62915;50.832;4.462;2024-01-11T14:14:43;2.00;99.90
23681;DHT22;62915;50.832;4.462;2024-01-11T14:17:09;2.00;99.90
23681;DHT22;62915;50.832;4.462;2024-01-11T14:19:35;2.10;99.90
23681;DHT22;62915;50.832;4.462;2024-01-11T14:22:01;2.10;99.90
23681;DHT22;62915;50.832;4.462;2024-01-11T14:24:26;2.20;99.90
23681;DHT22;62915;50.832;4.462;2024-01-11T14:26:53;2.20;99.90
23681;DHT22;62915;50.832;4.462;2024-01-11T14:29:19;2.20;99.90
23681;DHT22;62915;50.832;4.462;2024-01-11T14:31:45;2.30;99.90
23681;DHT22;62915;50.832;4.462;2024-01-11T14:34:12;2.20;99.90
23681;DHT22;62915;50.832;4.462;2024-01-11T14:36:40;2.20;99.90
23681;DHT22;62915;50.832;4.462;2024-01-11T14:39:09;2.20;99.90
23681;DHT22;62915;50.832;4.462;2024-01-11T14:41:36;2.20;99.90
23681;DHT22;62915;50.832;4.462;2024-01-11T14:44:03;2.30;99.90
23681;DHT22;62915;50.832;4.462;2024-01-11T14:46:31;2.30;99.90
23681;DHT22;62915;50.832;4.462;2024-01-11T14:49:00;2.20;99.90
23681;DHT22;62915;50.832;4.462;2024-01-11T14:51:26;2.20;99.90
23681;DHT22;62915;50.832;4.462;2024-01-11T14:53:56;2.20;99.90
23681;DHT22;62915;50.832;4.462;2024-01-11T14:56:22;2.10;99.90
23681;DHT22;62915;50.832;4.462;2024-01-11T14:58:47;2.20;99.90
23681;DHT22;62915;50.832;4.462;2024-01-11T15:01:13;2.20;99.90
23681;DHT22;62915;50.832;4.462;2024-01-11T15:03:39;2.10;99.90
23681;DHT22;62915;50.832;4.462;2024-01-11T15:06:05;2.10;99.90
23681;DHT22;62915;50.832;4.462;2024-01-11T15:08:31;2.00;99.90
23681;DHT22;62915;50.832;4.462;2024-01-11T15:10:56;2.00;99.90
23681;DHT22;62915;50.832;4.462;2024-01-11T15:13:22;2.00;99.90
23681;DHT22;62915;50.832;4.462;2024-01-11T15:15:48;2.00;99.90
23681;DHT22;62915;50.832;4.462;2024-01-11T15:18:14;2.00;99.90
23681;DHT22;62915;50.832;4.462;2024-01-11T15:20:39;2.10;99.90
23681;DHT22;62915;50.832;4.462;2024-01-11T15:23:05;2.00;99.90
23681;DHT22;62915;50.832;4.462;2024-01-11T15:25:31;1.90;99.90
23681;DHT22;62915;50.832;4.462;2024-01-11T15:27:57;1.90;99.90
23681;DHT22;62915;50.832;4.462;2024-01-11T15:30:23;1.90;99.90
23681;DHT22;62915;50.832;4.462;2024-01-11T15:32:49;1.90;99.90
23681;DHT22;62915;50.832;4.462;2024-01-11T15:35:15;2.00;99.90
23681;DHT22;62915;50.832;4.462;2024-01-11T15:37:41;2.00;99.90